Metar Report
Metar
METAR KPHG 201156Z AUTO 27006KT 10SM CLR 03/00 A3034 A02 4767
METAR KPHG 201056Z AUTO 26006KT 10SM CLR 03/00 A3032 A02 4766
METAR KPHG 200956Z AUTO 27006KT 10SM CLR 04/00 A3031 A02 4765
METAR KPHG 200856Z AUTO 29007KT 10SM CLR 04/01 A3031 A02 4764
METAR KPHG 200756Z AUTO 27005KT 10SM CLR 04/01 A3031 A02 4763
METAR KPHG 200656Z AUTO 30006KT 10SM CLR 06/01 A3029 A02 4762
METAR KPHG 200556Z AUTO 29007KT 10SM CLR 06/01 A3029 A02 4761
METAR KPHG 200456Z AUTO 29008KT 10SM CLR 07/01 A3028 A02 4760
METAR KPHG 200356Z AUTO 29008KT 10SM CLR 08/02 A3027 A02 4759
METAR KPHG 200256Z AUTO 29007KT 10SM CLR 08/02 A3025 A02 4758
METAR KPHG 200156Z AUTO 29007KT 10SM CLR 10/01 A3023 A02 4757
METAR KPHG 200056Z AUTO 34007KT 10SM CLR 16/00 A3021 A02 4756
METAR KPHG 192356Z AUTO 34006KT 10SM CLR 18/00 A3018 A02 4755
METAR KPHG 192256Z AUTO 35010G18KT 10SM CLR 22/M01 A3015 A02 4754
METAR KPHG 192156Z AUTO 34012G17KT 10SM CLR 24/02 A3011 A02 4753
METAR KPHG 192056Z AUTO 32013G20KT 10SM CLR 24/00 A3010 A02 4752
METAR KPHG 191956Z AUTO 33013G18KT 10SM CLR 25/03 A3009 A02 4751
METAR KPHG 191856Z AUTO 34007G17KT 10SM CLR 23/04 A3010 A02 4750
METAR KPHG 191756Z AUTO 30007G17KT 10SM CLR 21/05 A3011 A02 4749
METAR KPHG 191656Z AUTO 30010G14KT 10SM CLR 18/06 A3010 A02 4748
METAR KPHG 191556Z AUTO 27009KT 10SM CLR 16/07 A3010 A02 4747
METAR KPHG 191456Z AUTO 24008G14KT 10SM CLR 12/08 A3010 A02 4746
METAR KPHG 191356Z AUTO 24004KT 10SM CLR 09/09 A3010 A02 4745
METAR KPHG 191256Z AUTO 22003KT 10SM CLR 08/08 A3008 A02 4744
METAR KPHG 191156Z AUTO 21003KT 10SM CLR 08/08 A3008 A02 4743
METAR KPHG 191056Z AUTO 20004KT 10SM CLR 09/09 A3008 A02 4742
METAR KPHG 190956Z AUTO 19005KT 10SM OVC029 11/09 A3009 A02 4741
METAR KPHG 190856Z AUTO 17005KT 10SM OVC027 11/11 A3012 A02 4740
METAR KPHG 190756Z AUTO 17005KT 10SM OVC025 11/09 A3014 A02 4739
METAR KPHG 190656Z AUTO 19005KT 10SM OVC027 11/09 A3016 A02 4738
METAR KPHG 190556Z AUTO 19005KT 10SM SCT031 BKN043 BKN110 11/09 A3017 A02 4737
METAR KPHG 190456Z AUTO 18010KT 10SM -RA SCT042 BKN050 OVC060 12/08 A3018 A02 4736
METAR KPHG 190356Z AUTO 18011G16KT 10SM OVC048 13/07 A3020 A02 4735
METAR KPHG 190256Z AUTO 16008KT 10SM BKN060 BKN080 OVC100 14/06 A3020 A02 4734
METAR KPHG 190156Z AUTO 17010KT 10SM OVC065 14/05 A3022 A02 4733
METAR KPHG 190056Z AUTO 15009KT 10SM SCT075 SCT085 BKN110 15/04 A3022 A02 4732
METAR KPHG 182356Z AUTO 17009KT 10SM OVC100 16/04 A3024 A02 4731
METAR KPHG 182256Z AUTO 17010G15KT 10SM SCT080 BKN120 18/04 A3026 A02 4730
METAR KPHG 182156Z AUTO 18011G21KT 10SM BKN090 19/03 A3027 A02 4729
METAR KPHG 182056Z AUTO 17014G23KT 10SM SCT110 19/03 A3029 A02 4728
METAR KPHG 181956Z AUTO 17015G20KT 10SM CLR 19/03 A3031 A02 4727
METAR KPHG 181856Z AUTO 18012KT 10SM SCT080 18/05 A3034 A02 4726
METAR KPHG 181756Z AUTO 18013G19KT 10SM SCT080 19/06 A3038 A02 4725
METAR KPHG 181656Z AUTO 18014KT 10SM SCT110 17/06 A3041 A02 4724
METAR KPHG 181556Z AUTO 19008G16KT 10SM SCT120 16/06 A3042 A02 4723
METAR KPHG 181456Z AUTO 00000KT 10SM CLR 10/06 A3043 A02 4722
METAR KPHG 181356Z AUTO 09004KT 10SM CLR 06/06 A3043 A02 4721
METAR KPHG 181256Z AUTO 06004KT 10SM CLR 03/03 A3043 A02 4720
METAR KPHG 181156Z AUTO 00000KT 10SM CLR 04/03 A3044 A02 4719
METAR KPHG 181056Z AUTO 04004KT 10SM CLR 05/03 A3043 A02 4718
METAR KPHG 180956Z AUTO 00000KT 10SM CLR 04/03 A3043 A02 4717
METAR KPHG 180856Z AUTO 00000KT 10SM CLR 03/02 A3044 A02 4716
METAR KPHG 180756Z AUTO 00000KT 10SM CLR 04/04 A3044 A02 4715
METAR KPHG 180656Z AUTO 00000KT 10SM CLR 04/03 A3046 A02 4714
METAR KPHG 180556Z AUTO 00000KT 10SM CLR 04/03 A3046 A02 4713
METAR KPHG 180456Z AUTO 00000KT 10SM CLR 05/02 A3046 A02 4712
METAR KPHG 180356Z AUTO 00000KT 10SM CLR 07/03 A3046 A02 4711
METAR KPHG 180256Z AUTO 12003KT 10SM CLR 09/03 A3046 A02 4710
METAR KPHG 180156Z AUTO 13003KT 10SM CLR 12/03 A3046 A02 4709
METAR KPHG 180056Z AUTO 11004KT 10SM CLR 12/02 A3045 A02 4708
METAR KPHG 172356Z AUTO 13003KT 10SM CLR 15/04 A3044 A02 4707
METAR KPHG 172256Z AUTO 12003KT 10SM CLR 19/02 A3043 A02 4706
METAR KPHG 172156Z AUTO 00000KT 10SM CLR 20/01 A3043 A02 4705
METAR KPHG 172056Z AUTO 12005KT 10SM CLR 20/02 A3044 A02 4704
METAR KPHG 171956Z AUTO 14003KT 10SM CLR 19/02 A3045 A02 4703
METAR KPHG 171856Z AUTO 00000KT 10SM CLR 19/02 A3047 A02 4702
METAR KPHG 171756Z AUTO 11004KT 10SM CLR 18/02 A3050 A02 4701
METAR KPHG 171656Z AUTO 08003KT 10SM CLR 17/03 A3051 A02 4700
METAR KPHG 171556Z AUTO 00000KT 10SM CLR 14/04 A3051 A02 4699
METAR KPHG 171456Z AUTO 26003KT 10SM CLR 09/04 A3050 A02 4698
METAR KPHG 171356Z AUTO 28004KT 10SM CLR 04/02 A3049 A02 4697
METAR KPHG 171256Z AUTO 28004KT 10SM CLR 02/02 A3046 A02 4696
METAR KPHG 171156Z AUTO 30006KT 10SM CLR 03/03 A3043 A02 4695
METAR KPHG 171056Z AUTO 26003KT 10SM CLR 02/02 A3043 A02 4694
METAR KPHG 170956Z AUTO 30004KT 10SM CLR 03/02 A3041 A02 4693
METAR KPHG 170856Z AUTO 28006KT 10SM CLR 04/02 A3040 A02 4692
METAR KPHG 170756Z AUTO 28005KT 10SM CLR 03/02 A3039 A02 4691
METAR KPHG 170656Z AUTO 28006KT 10SM CLR 04/01 A3037 A02 4690
METAR KPHG 170556Z AUTO 23003KT 10SM CLR 04/02 A3036 A02 4689
METAR KPHG 170456Z AUTO 28005KT 10SM CLR 06/02 A3034 A02 4688
METAR KPHG 170356Z AUTO 29006KT 10SM CLR 06/02 A3033 A02 4687
METAR KPHG 170256Z AUTO 30005KT 10SM CLR 08/03 A3031 A02 4686
METAR KPHG 170156Z AUTO 30006KT 10SM CLR 11/03 A3029 A02 4685
METAR KPHG 170056Z AUTO 25003KT 10SM CLR 12/03 A3025 A02 4684
METAR KPHG 162356Z AUTO 00000KT 10SM CLR 17/02 A3023 A02 4683
METAR KPHG 162256Z AUTO 27005KT 10SM CLR 20/01 A3022 A02 4682
METAR KPHG 162156Z AUTO 32007KT 10SM CLR 21/00 A3022 A02 4681
METAR KPHG 162056Z AUTO 29008KT 10SM CLR 21/00 A3023 A02 4680
METAR KPHG 161956Z AUTO 27008KT 10SM CLR 19/00 A3024 A02 4679
METAR KPHG 161856Z AUTO 28005KT 10SM CLR 19/00 A3026 A02 4678
METAR KPHG 161756Z AUTO 30004KT 10SM CLR 17/00 A3028 A02 4677
METAR KPHG 161656Z AUTO 25004KT 10SM CLR 14/01 A3029 A02 4676
METAR KPHG 161556Z AUTO 26005KT 10SM CLR 10/00 A3031 A02 4675
METAR KPHG 161456Z AUTO 28006KT 10SM CLR 06/M01 A3029 A02 4674
METAR KPHG 161356Z AUTO 28006KT 10SM CLR 02/M02 A3029 A02 4673
METAR KPHG 161256Z AUTO 27003KT 10SM CLR M01/M04 A3028 A02 4672
METAR KPHG 161156Z AUTO 27007KT 10SM CLR M02/M04 A3027 A02 4671
METAR KPHG 161056Z AUTO 25004KT 10SM CLR M02/M04 A3027 A02 4670
METAR KPHG 160956Z AUTO 25006KT 10SM CLR M01/M04 A3027 A02 4669
METAR KPHG 160856Z AUTO 28004KT 10SM CLR M01/M04 A3028 A02 4668
METAR KPHG 160756Z AUTO 24007KT 10SM CLR 00/M03 A3028 A02 4667
METAR KPHG 160656Z AUTO 27005KT 10SM CLR 01/M03 A3028 A02 4666
METAR KPHG 160556Z AUTO 25008KT 10SM CLR 01/M03 A3029 A02 4665
METAR KPHG 160456Z AUTO 25005KT 10SM CLR 01/M03 A3029 A02 4664
METAR KPHG 160356Z AUTO 00000KT 10SM CLR 01/M04 A3031 A02 4663
METAR KPHG 160256Z AUTO 23004KT 10SM CLR 02/M04 A3032 A02 4662
METAR KPHG 160156Z AUTO 20003KT 10SM CLR 02/M04 A3032 A02 4661
METAR KPHG 160056Z AUTO 17003KT 10SM CLR 04/M04 A3032 A02 4660
METAR KPHG 152356Z AUTO 20003KT 10SM CLR 07/M04 A3032 A02 4659
METAR KPHG 152256Z AUTO 26005KT 10SM CLR 09/M07 A3032 A02 4658
METAR KPHG 152156Z AUTO 24004KT 10SM CLR 09/M06 A3034 A02 4657
METAR KPHG 152056Z AUTO 27005KT 10SM CLR 09/M05 A3035 A02 4656
METAR KPHG 151956Z AUTO 25007KT 10SM CLR 08/M04 A3037 A02 4655
METAR KPHG 151856Z AUTO 28005G14KT 10SM CLR 07/M04 A3041 A02 4654
METAR KPHG 151756Z AUTO 29005KT 10SM CLR 04/M03 A3043 A02 4653
METAR KPHG 151656Z AUTO 27007KT 10SM CLR 03/M03 A3044 A02 4652
METAR KPHG 151556Z AUTO 00000KT 10SM CLR 02/M03 A3045 A02 4651
METAR KPHG 151456Z AUTO 26003KT 10SM CLR M01/M04 A3045 A02 4650
METAR KPHG 151356Z AUTO 00000KT 10SM CLR M03/M05 A3043 A02 4649
METAR KPHG 151256Z AUTO 28004KT 10SM CLR M06/M06 A3043 A02 4648
METAR KPHG 151156Z AUTO 28005KT 10SM CLR M05/M06 A3042 A02 4647